sensor_id;sensor_type;location;lat;lon;timestamp;temperature;humidity
21023;DHT22;10669;51.076;3.714;2022-10-13T00:00:45;14.10;99.90
21023;DHT22;10669;51.076;3.714;2022-10-13T00:03:11;14.00;99.90
21023;DHT22;10669;51.076;3.714;2022-10-13T00:05:45;14.00;99.90
21023;DHT22;10669;51.076;3.714;2022-10-13T00:08:11;13.90;99.90
21023;DHT22;10669;51.076;3.714;2022-10-13T00:10:38;13.90;99.90
21023;DHT22;10669;51.076;3.714;2022-10-13T00:13:07;13.90;99.90
21023;DHT22;10669;51.076;3.714;2022-10-13T00:15:36;13.90;99.90
21023;DHT22;10669;51.076;3.714;2022-10-13T00:18:02;13.90;99.90
21023;DHT22;10669;51.076;3.714;2022-10-13T00:20:28;13.80;99.90
21023;DHT22;10669;51.076;3.714;2022-10-13T00:22:55;13.80;99.90
21023;DHT22;10669;51.076;3.714;2022-10-13T00:25:22;13.90;99.90
21023;DHT22;10669;51.076;3.714;2022-10-13T00:27:47;13.90;99.90
21023;DHT22;10669;51.076;3.714;2022-10-13T00:30:13;13.90;99.90
21023;DHT22;10669;51.076;3.714;2022-10-13T00:32:39;13.90;99.90
21023;DHT22;10669;51.076;3.714;2022-10-13T00:35:06;13.90;99.90
21023;DHT22;10669;51.076;3.714;2022-10-13T00:37:33;13.90;99.90
21023;DHT22;10669;51.076;3.714;2022-10-13T00:39:59;13.90;99.90
21023;DHT22;10669;51.076;3.714;2022-10-13T00:42:25;13.90;99.90
21023;DHT22;10669;51.076;3.714;2022-10-13T00:44:57;13.90;99.90
21023;DHT22;10669;51.076;3.714;2022-10-13T00:47:24;13.90;99.90
21023;DHT22;10669;51.076;3.714;2022-10-13T00:49:51;13.90;99.90
21023;DHT22;10669;51.076;3.714;2022-10-13T00:52:18;13.90;99.90
21023;DHT22;10669;51.076;3.714;2022-10-13T00:54:47;13.80;99.90
21023;DHT22;10669;51.076;3.714;2022-10-13T00:57:13;13.90;99.90
21023;DHT22;10669;51.076;3.714;2022-10-13T00:59:39;13.80;99.90
21023;DHT22;10669;51.076;3.714;2022-10-13T01:02:05;13.90;99.90
21023;DHT22;10669;51.076;3.714;2022-10-13T01:04:35;13.90;99.90
21023;DHT22;10669;51.076;3.714;2022-10-13T01:07:03;13.90;99.90
21023;DHT22;10669;51.076;3.714;2022-10-13T01:09:30;13.90;99.90
21023;DHT22;10669;51.076;3.714;2022-10-13T01:12:12;14.00;99.90
21023;DHT22;10669;51.076;3.714;2022-10-13T01:17:31;14.00;99.90
21023;DHT22;10669;51.076;3.714;2022-10-13T01:20:22;14.00;99.90
21023;DHT22;10669;51.076;3.714;2022-10-13T01:26:10;13.80;99.90
21023;DHT22;10669;51.076;3.714;2022-10-13T01:34:59;13.70;99.90
21023;DHT22;10669;51.076;3.714;2022-10-13T01:45:36;13.80;99.90
21023;DHT22;10669;51.076;3.714;2022-10-13T01:48:04;13.80;99.90
21023;DHT22;10669;51.076;3.714;2022-10-13T01:50:32;13.80;99.90
21023;DHT22;10669;51.076;3.714;2022-10-13T01:53:01;13.80;99.90
21023;DHT22;10669;51.076;3.714;2022-10-13T01:55:29;13.90;99.90
21023;DHT22;10669;51.076;3.714;2022-10-13T01:57:56;14.00;99.90
21023;DHT22;10669;51.076;3.714;2022-10-13T02:00:22;13.90;99.90
21023;DHT22;10669;51.076;3.714;2022-10-13T02:06:01;13.90;99.90
21023;DHT22;10669;51.076;3.714;2022-10-13T02:08:53;13.90;99.90
21023;DHT22;10669;51.076;3.714;2022-10-13T02:11:21;13.80;99.90
21023;DHT22;10669;51.076;3.714;2022-10-13T02:14:12;13.90;99.90
21023;DHT22;10669;51.076;3.714;2022-10-13T02:16:41;13.90;99.90
21023;DHT22;10669;51.076;3.714;2022-10-13T02:19:13;13.90;99.90
21023;DHT22;10669;51.076;3.714;2022-10-13T02:21:41;13.90;99.90
21023;DHT22;10669;51.076;3.714;2022-10-13T02:24:07;13.90;99.90
21023;DHT22;10669;51.076;3.714;2022-10-13T02:26:34;13.80;99.90
21023;DHT22;10669;51.076;3.714;2022-10-13T02:29:10;13.80;99.90
21023;DHT22;10669;51.076;3.714;2022-10-13T02:31:36;13.80;99.90
21023;DHT22;10669;51.076;3.714;2022-10-13T02:34:02;13.90;99.90
21023;DHT22;10669;51.076;3.714;2022-10-13T02:36:28;13.80;99.90
21023;DHT22;10669;51.076;3.714;2022-10-13T02:38:53;13.90;99.90
21023;DHT22;10669;51.076;3.714;2022-10-13T02:41:19;13.90;99.90
21023;DHT22;10669;51.076;3.714;2022-10-13T02:43:44;14.00;99.90
21023;DHT22;10669;51.076;3.714;2022-10-13T02:46:12;14.00;99.90
21023;DHT22;10669;51.076;3.714;2022-10-13T02:48:39;14.10;99.90
21023;DHT22;10669;51.076;3.714;2022-10-13T02:51:05;14.10;99.90
21023;DHT22;10669;51.076;3.714;2022-10-13T02:53:30;14.10;99.90
21023;DHT22;10669;51.076;3.714;2022-10-13T02:55:57;14.10;99.90
21023;DHT22;10669;51.076;3.714;2022-10-13T02:58:23;14.10;99.90
21023;DHT22;10669;51.076;3.714;2022-10-13T03:00:51;14.10;99.90
21023;DHT22;10669;51.076;3.714;2022-10-13T03:03:17;14.10;99.90
21023;DHT22;10669;51.076;3.714;2022-10-13T03:05:43;14.10;99.90
21023;DHT22;10669;51.076;3.714;2022-10-13T03:08:09;14.10;99.90
21023;DHT22;10669;51.076;3.714;2022-10-13T03:10:35;14.00;99.90
21023;DHT22;10669;51.076;3.714;2022-10-13T03:13:01;14.00;99.90
21023;DHT22;10669;51.076;3.714;2022-10-13T03:15:27;14.00;99.90
21023;DHT22;10669;51.076;3.714;2022-10-13T03:17:52;13.90;99.90
21023;DHT22;10669;51.076;3.714;2022-10-13T03:20:18;14.00;99.90
21023;DHT22;10669;51.076;3.714;2022-10-13T03:22:44;14.00;99.90
21023;DHT22;10669;51.076;3.714;2022-10-13T03:25:09;13.90;99.90
21023;DHT22;10669;51.076;3.714;2022-10-13T03:27:35;13.90;99.90
21023;DHT22;10669;51.076;3.714;2022-10-13T03:30:01;13.70;99.90
21023;DHT22;10669;51.076;3.714;2022-10-13T03:32:29;13.70;99.90
21023;DHT22;10669;51.076;3.714;2022-10-13T03:34:55;13.70;99.90
21023;DHT22;10669;51.076;3.714;2022-10-13T03:37:21;13.70;99.90
21023;DHT22;10669;51.076;3.714;2022-10-13T03:39:47;13.80;99.90
21023;DHT22;10669;51.076;3.714;2022-10-13T03:42:13;13.90;99.90
21023;DHT22;10669;51.076;3.714;2022-10-13T03:44:38;13.90;99.90
21023;DHT22;10669;51.076;3.714;2022-10-13T03:47:05;14.00;99.90
21023;DHT22;10669;51.076;3.714;2022-10-13T03:49:30;13.90;99.90
21023;DHT22;10669;51.076;3.714;2022-10-13T03:51:56;13.90;99.90
21023;DHT22;10669;51.076;3.714;2022-10-13T03:54:22;13.80;99.90
21023;DHT22;10669;51.076;3.714;2022-10-13T03:56:47;13.80;99.90
21023;DHT22;10669;51.076;3.714;2022-10-13T03:59:13;13.70;99.90
21023;DHT22;10669;51.076;3.714;2022-10-13T04:01:41;13.80;99.90
21023;DHT22;10669;51.076;3.714;2022-10-13T04:04:10;13.70;99.90
21023;DHT22;10669;51.076;3.714;2022-10-13T04:06:36;13.70;99.90
21023;DHT22;10669;51.076;3.714;2022-10-13T04:09:02;13.80;99.90
21023;DHT22;10669;51.076;3.714;2022-10-13T04:11:28;13.70;99.90
21023;DHT22;10669;51.076;3.714;2022-10-13T04:13:56;13.70;99.90
21023;DHT22;10669;51.076;3.714;2022-10-13T04:16:27;13.60;99.90
21023;DHT22;10669;51.076;3.714;2022-10-13T04:19:04;13.70;99.90
21023;DHT22;10669;51.076;3.714;2022-10-13T04:21:32;13.70;99.90
21023;DHT22;10669;51.076;3.714;2022-10-13T04:24:01;13.70;99.90
21023;DHT22;10669;51.076;3.714;2022-10-13T04:26:30;13.70;99.90
21023;DHT22;10669;51.076;3.714;2022-10-13T04:28:56;13.70;99.90
21023;DHT22;10669;51.076;3.714;2022-10-13T04:31:22;13.60;99.90
21023;DHT22;10669;51.076;3.714;2022-10-13T04:33:49;13.60;99.90
21023;DHT22;10669;51.076;3.714;2022-10-13T04:36:16;13.50;99.90
21023;DHT22;10669;51.076;3.714;2022-10-13T04:38:42;13.50;99.90
21023;DHT22;10669;51.076;3.714;2022-10-13T04:41:09;13.50;99.90
21023;DHT22;10669;51.076;3.714;2022-10-13T04:43:35;13.60;99.90
21023;DHT22;10669;51.076;3.714;2022-10-13T04:48:33;13.60;99.90
21023;DHT22;10669;51.076;3.714;2022-10-13T04:51:20;13.60;99.90
21023;DHT22;10669;51.076;3.714;2022-10-13T04:53:46;13.60;99.90
21023;DHT22;10669;51.076;3.714;2022-10-13T04:56:15;13.60;99.90
21023;DHT22;10669;51.076;3.714;2022-10-13T04:58:42;13.70;99.90
21023;DHT22;10669;51.076;3.714;2022-10-13T05:01:12;13.60;99.90
21023;DHT22;10669;51.076;3.714;2022-10-13T05:03:38;13.60;99.90
21023;DHT22;10669;51.076;3.714;2022-10-13T05:06:04;13.50;99.90
21023;DHT22;10669;51.076;3.714;2022-10-13T05:08:29;13.60;99.90
21023;DHT22;10669;51.076;3.714;2022-10-13T05:11:01;13.70;99.90
21023;DHT22;10669;51.076;3.714;2022-10-13T05:13:29;13.70;99.90
21023;DHT22;10669;51.076;3.714;2022-10-13T05:15:55;13.70;99.90
21023;DHT22;10669;51.076;3.714;2022-10-13T05:18:21;13.70;99.90
21023;DHT22;10669;51.076;3.714;2022-10-13T05:20:47;13.70;99.90
21023;DHT22;10669;51.076;3.714;2022-10-13T05:23:14;13.70;99.90
21023;DHT22;10669;51.076;3.714;2022-10-13T05:25:41;13.70;99.90
21023;DHT22;10669;51.076;3.714;2022-10-13T05:28:07;13.70;99.90
21023;DHT22;10669;51.076;3.714;2022-10-13T05:30:35;13.70;99.90
21023;DHT22;10669;51.076;3.714;2022-10-13T05:33:01;13.60;99.90
21023;DHT22;10669;51.076;3.714;2022-10-13T05:35:30;13.60;99.90
21023;DHT22;10669;51.076;3.714;2022-10-13T05:37:55;13.70;99.90
21023;DHT22;10669;51.076;3.714;2022-10-13T05:40:24;13.60;99.90
21023;DHT22;10669;51.076;3.714;2022-10-13T05:42:52;13.60;99.90
21023;DHT22;10669;51.076;3.714;2022-10-13T05:45:18;13.70;99.90
21023;DHT22;10669;51.076;3.714;2022-10-13T05:47:46;13.70;99.90
21023;DHT22;10669;51.076;3.714;2022-10-13T05:50:12;13.70;99.90
21023;DHT22;10669;51.076;3.714;2022-10-13T05:52:38;13.70;99.90
21023;DHT22;10669;51.076;3.714;2022-10-13T05:55:04;13.60;99.90
21023;DHT22;10669;51.076;3.714;2022-10-13T05:57:39;13.70;99.90
21023;DHT22;10669;51.076;3.714;2022-10-13T06:00:14;13.70;99.90
21023;DHT22;10669;51.076;3.714;2022-10-13T06:02:54;13.70;99.90
21023;DHT22;10669;51.076;3.714;2022-10-13T06:05:23;13.70;99.90
21023;DHT22;10669;51.076;3.714;2022-10-13T06:07:52;13.70;99.90
21023;DHT22;10669;51.076;3.714;2022-10-13T06:10:18;13.70;99.90
21023;DHT22;10669;51.076;3.714;2022-10-13T06:12:44;13.70;99.90
21023;DHT22;10669;51.076;3.714;2022-10-13T06:15:10;13.80;99.90
21023;DHT22;10669;51.076;3.714;2022-10-13T06:17:37;13.80;99.90
21023;DHT22;10669;51.076;3.714;2022-10-13T06:20:05;13.90;99.90
21023;DHT22;10669;51.076;3.714;2022-10-13T06:22:33;13.90;99.90
21023;DHT22;10669;51.076;3.714;2022-10-13T06:24:59;14.00;99.90
21023;DHT22;10669;51.076;3.714;2022-10-13T06:27:26;13.90;99.90
21023;DHT22;10669;51.076;3.714;2022-10-13T06:29:53;13.90;99.90
21023;DHT22;10669;51.076;3.714;2022-10-13T06:32:20;13.90;99.90
21023;DHT22;10669;51.076;3.714;2022-10-13T06:34:46;14.00;99.90
21023;DHT22;10669;51.076;3.714;2022-10-13T06:37:11;14.00;99.90
21023;DHT22;10669;51.076;3.714;2022-10-13T06:39:38;13.90;99.90
21023;DHT22;10669;51.076;3.714;2022-10-13T06:42:04;13.80;99.90
21023;DHT22;10669;51.076;3.714;2022-10-13T06:44:31;13.70;99.90
21023;DHT22;10669;51.076;3.714;2022-10-13T06:46:57;13.70;99.90
21023;DHT22;10669;51.076;3.714;2022-10-13T06:49:23;13.70;99.90
21023;DHT22;10669;51.076;3.714;2022-10-13T06:51:48;13.80;99.90
21023;DHT22;10669;51.076;3.714;2022-10-13T06:54:14;13.70;99.90
21023;DHT22;10669;51.076;3.714;2022-10-13T06:56:41;13.80;99.90
21023;DHT22;10669;51.076;3.714;2022-10-13T06:59:07;13.80;99.90
21023;DHT22;10669;51.076;3.714;2022-10-13T07:01:33;13.80;99.90
21023;DHT22;10669;51.076;3.714;2022-10-13T07:03:58;13.70;99.90
21023;DHT22;10669;51.076;3.714;2022-10-13T07:06:24;13.70;99.90
21023;DHT22;10669;51.076;3.714;2022-10-13T07:08:50;13.80;99.90
21023;DHT22;10669;51.076;3.714;2022-10-13T07:11:15;13.80;99.90
21023;DHT22;10669;51.076;3.714;2022-10-13T07:13:43;13.90;99.90
21023;DHT22;10669;51.076;3.714;2022-10-13T07:16:09;14.00;99.90
21023;DHT22;10669;51.076;3.714;2022-10-13T07:18:36;14.10;99.90
21023;DHT22;10669;51.076;3.714;2022-10-13T07:21:03;14.20;99.90
21023;DHT22;10669;51.076;3.714;2022-10-13T07:23:29;14.20;99.90
21023;DHT22;10669;51.076;3.714;2022-10-13T07:25:55;14.20;99.90
21023;DHT22;10669;51.076;3.714;2022-10-13T07:28:25;14.10;99.90
21023;DHT22;10669;51.076;3.714;2022-10-13T07:30:51;14.10;99.90
21023;DHT22;10669;51.076;3.714;2022-10-13T07:33:18;14.10;99.90
21023;DHT22;10669;51.076;3.714;2022-10-13T07:35:44;14.10;99.90
21023;DHT22;10669;51.076;3.714;2022-10-13T07:38:10;14.00;99.90
21023;DHT22;10669;51.076;3.714;2022-10-13T07:40:37;14.10;99.90
21023;DHT22;10669;51.076;3.714;2022-10-13T07:43:04;14.00;99.90
21023;DHT22;10669;51.076;3.714;2022-10-13T07:45:30;14.10;99.90
21023;DHT22;10669;51.076;3.714;2022-10-13T07:47:56;14.10;99.90
21023;DHT22;10669;51.076;3.714;2022-10-13T07:50:22;14.10;99.90
21023;DHT22;10669;51.076;3.714;2022-10-13T07:52:47;14.10;99.90
21023;DHT22;10669;51.076;3.714;2022-10-13T07:55:13;14.30;99.90
21023;DHT22;10669;51.076;3.714;2022-10-13T07:57:39;14.20;99.90
21023;DHT22;10669;51.076;3.714;2022-10-13T08:00:05;14.30;99.90
21023;DHT22;10669;51.076;3.714;2022-10-13T08:02:32;14.50;99.90
21023;DHT22;10669;51.076;3.714;2022-10-13T08:04:58;14.60;99.90
21023;DHT22;10669;51.076;3.714;2022-10-13T08:07:23;14.60;99.90
21023;DHT22;10669;51.076;3.714;2022-10-13T08:09:49;14.50;99.90
21023;DHT22;10669;51.076;3.714;2022-10-13T08:12:15;14.60;99.90
21023;DHT22;10669;51.076;3.714;2022-10-13T08:14:42;14.60;99.90
21023;DHT22;10669;51.076;3.714;2022-10-13T08:17:07;14.50;99.90
21023;DHT22;10669;51.076;3.714;2022-10-13T08:19:33;14.50;99.90
21023;DHT22;10669;51.076;3.714;2022-10-13T08:21:59;14.40;99.90
21023;DHT22;10669;51.076;3.714;2022-10-13T08:24:28;14.40;99.90
21023;DHT22;10669;51.076;3.714;2022-10-13T08:26:54;14.60;99.90
21023;DHT22;10669;51.076;3.714;2022-10-13T08:29:20;14.80;99.90
21023;DHT22;10669;51.076;3.714;2022-10-13T08:31:48;14.80;99.90
21023;DHT22;10669;51.076;3.714;2022-10-13T08:34:15;14.80;99.90
21023;DHT22;10669;51.076;3.714;2022-10-13T08:36:40;14.60;99.90
21023;DHT22;10669;51.076;3.714;2022-10-13T08:39:07;14.50;99.90
21023;DHT22;10669;51.076;3.714;2022-10-13T08:41:37;14.50;99.90
21023;DHT22;10669;51.076;3.714;2022-10-13T08:47:16;14.50;99.90
21023;DHT22;10669;51.076;3.714;2022-10-13T08:49:43;14.30;99.90
21023;DHT22;10669;51.076;3.714;2022-10-13T08:53:10;14.50;99.90
21023;DHT22;10669;51.076;3.714;2022-10-13T08:56:29;14.50;99.90
21023;DHT22;10669;51.076;3.714;2022-10-13T08:58:49;14.70;99.90
21023;DHT22;10669;51.076;3.714;2022-10-13T09:01:21;14.50;99.90
21023;DHT22;10669;51.076;3.714;2022-10-13T09:03:55;14.40;99.90
21023;DHT22;10669;51.076;3.714;2022-10-13T09:06:26;14.50;99.90
21023;DHT22;10669;51.076;3.714;2022-10-13T09:09:05;14.40;99.90
21023;DHT22;10669;51.076;3.714;2022-10-13T09:11:35;14.40;99.90
21023;DHT22;10669;51.076;3.714;2022-10-13T09:16:44;14.40;99.90
21023;DHT22;10669;51.076;3.714;2022-10-13T09:21:40;14.40;99.90
21023;DHT22;10669;51.076;3.714;2022-10-13T09:24:13;14.40;99.90
21023;DHT22;10669;51.076;3.714;2022-10-13T09:26:41;14.40;99.90
21023;DHT22;10669;51.076;3.714;2022-10-13T09:29:30;14.40;99.90
21023;DHT22;10669;51.076;3.714;2022-10-13T09:32:28;14.40;99.90
21023;DHT22;10669;51.076;3.714;2022-10-13T09:35:18;14.40;99.90
21023;DHT22;10669;51.076;3.714;2022-10-13T09:40:32;14.60;99.90
21023;DHT22;10669;51.076;3.714;2022-10-13T09:43:00;14.60;99.90
21023;DHT22;10669;51.076;3.714;2022-10-13T09:45:26;14.60;99.90
21023;DHT22;10669;51.076;3.714;2022-10-13T09:48:05;14.60;99.90
21023;DHT22;10669;51.076;3.714;2022-10-13T09:50:34;14.70;99.90
21023;DHT22;10669;51.076;3.714;2022-10-13T10:01:31;14.90;99.90
21023;DHT22;10669;51.076;3.714;2022-10-13T10:04:03;14.90;99.90
21023;DHT22;10669;51.076;3.714;2022-10-13T10:06:30;14.90;99.90
21023;DHT22;10669;51.076;3.714;2022-10-13T10:11:46;14.90;99.90
21023;DHT22;10669;51.076;3.714;2022-10-13T10:14:25;14.90;99.90
21023;DHT22;10669;51.076;3.714;2022-10-13T10:26:01;14.90;99.90
21023;DHT22;10669;51.076;3.714;2022-10-13T10:28:38;15.00;99.90
21023;DHT22;10669;51.076;3.714;2022-10-13T10:31:18;15.00;99.90
21023;DHT22;10669;51.076;3.714;2022-10-13T10:42:39;15.30;99.90
21023;DHT22;10669;51.076;3.714;2022-10-13T10:45:25;15.20;99.90
21023;DHT22;10669;51.076;3.714;2022-10-13T10:47:59;15.30;99.90
21023;DHT22;10669;51.076;3.714;2022-10-13T10:50:28;15.40;99.90
21023;DHT22;10669;51.076;3.714;2022-10-13T10:53:06;15.50;99.90
21023;DHT22;10669;51.076;3.714;2022-10-13T11:01:27;15.50;99.90
21023;DHT22;10669;51.076;3.714;2022-10-13T11:06:48;15.70;99.90
21023;DHT22;10669;51.076;3.714;2022-10-13T11:09:14;15.70;99.90
21023;DHT22;10669;51.076;3.714;2022-10-13T11:11:59;15.90;99.90
21023;DHT22;10669;51.076;3.714;2022-10-13T11:14:29;16.00;99.90
21023;DHT22;10669;51.076;3.714;2022-10-13T11:19:34;16.00;99.90
21023;DHT22;10669;51.076;3.714;2022-10-13T11:35:16;15.60;99.90
21023;DHT22;10669;51.076;3.714;2022-10-13T11:40:32;15.70;99.90
21023;DHT22;10669;51.076;3.714;2022-10-13T11:43:38;15.60;99.90
21023;DHT22;10669;51.076;3.714;2022-10-13T11:46:21;15.40;99.90
21023;DHT22;10669;51.076;3.714;2022-10-13T11:54:33;15.70;99.90
21023;DHT22;10669;51.076;3.714;2022-10-13T11:57:00;15.80;99.90
21023;DHT22;10669;51.076;3.714;2022-10-13T11:59:32;15.90;99.90
21023;DHT22;10669;51.076;3.714;2022-10-13T12:02:13;15.90;99.90
21023;DHT22;10669;51.076;3.714;2022-10-13T12:04:41;15.90;99.90
21023;DHT22;10669;51.076;3.714;2022-10-13T12:07:11;15.80;99.90
21023;DHT22;10669;51.076;3.714;2022-10-13T12:09:52;15.80;99.90
21023;DHT22;10669;51.076;3.714;2022-10-13T12:12:20;15.70;99.90
21023;DHT22;10669;51.076;3.714;2022-10-13T12:14:49;15.60;99.90
21023;DHT22;10669;51.076;3.714;2022-10-13T12:19:56;15.60;99.90
21023;DHT22;10669;51.076;3.714;2022-10-13T12:22:23;15.60;99.90
21023;DHT22;10669;51.076;3.714;2022-10-13T12:27:24;15.80;99.90
21023;DHT22;10669;51.076;3.714;2022-10-13T12:29:50;15.80;99.90
21023;DHT22;10669;51.076;3.714;2022-10-13T12:32:23;15.80;99.90
21023;DHT22;10669;51.076;3.714;2022-10-13T12:34:50;15.90;99.90
21023;DHT22;10669;51.076;3.714;2022-10-13T12:37:32;16.00;99.90
21023;DHT22;10669;51.076;3.714;2022-10-13T12:40:00;15.90;99.90
21023;DHT22;10669;51.076;3.714;2022-10-13T12:42:33;15.70;99.90
21023;DHT22;10669;51.076;3.714;2022-10-13T12:45:00;15.70;99.90
21023;DHT22;10669;51.076;3.714;2022-10-13T12:47:38;15.70;99.90
21023;DHT22;10669;51.076;3.714;2022-10-13T12:52:53;15.80;99.90
21023;DHT22;10669;51.076;3.714;2022-10-13T12:55:21;15.90;99.90
21023;DHT22;10669;51.076;3.714;2022-10-13T12:57:51;16.00;99.90
21023;DHT22;10669;51.076;3.714;2022-10-13T13:00:21;16.20;99.90
21023;DHT22;10669;51.076;3.714;2022-10-13T13:05:29;16.10;99.90
21023;DHT22;10669;51.076;3.714;2022-10-13T13:07:56;16.10;99.90
21023;DHT22;10669;51.076;3.714;2022-10-13T13:10:24;16.10;99.90
21023;DHT22;10669;51.076;3.714;2022-10-13T13:12:51;16.10;99.90
21023;DHT22;10669;51.076;3.714;2022-10-13T13:15:30;16.00;99.90
21023;DHT22;10669;51.076;3.714;2022-10-13T13:20:53;16.00;99.90
21023;DHT22;10669;51.076;3.714;2022-10-13T13:23:20;16.20;99.90
21023;DHT22;10669;51.076;3.714;2022-10-13T13:25:46;16.30;99.90
21023;DHT22;10669;51.076;3.714;2022-10-13T13:28:14;16.40;99.90
21023;DHT22;10669;51.076;3.714;2022-10-13T13:30:41;16.50;99.90
21023;DHT22;10669;51.076;3.714;2022-10-13T13:33:10;16.70;99.90
21023;DHT22;10669;51.076;3.714;2022-10-13T13:35:36;16.70;99.90
21023;DHT22;10669;51.076;3.714;2022-10-13T13:38:08;16.50;99.90
21023;DHT22;10669;51.076;3.714;2022-10-13T13:40:35;16.40;99.90
21023;DHT22;10669;51.076;3.714;2022-10-13T13:43:07;16.10;99.90
21023;DHT22;10669;51.076;3.714;2022-10-13T13:45:33;16.00;99.90
21023;DHT22;10669;51.076;3.714;2022-10-13T13:48:00;15.80;99.90
21023;DHT22;10669;51.076;3.714;2022-10-13T13:50:31;15.70;99.90
21023;DHT22;10669;51.076;3.714;2022-10-13T13:53:00;15.60;99.90
21023;DHT22;10669;51.076;3.714;2022-10-13T13:55:29;15.70;99.90
21023;DHT22;10669;51.076;3.714;2022-10-13T13:57:56;15.70;99.90
21023;DHT22;10669;51.076;3.714;2022-10-13T14:00:24;15.70;99.90
21023;DHT22;10669;51.076;3.714;2022-10-13T14:02:50;15.80;99.90
21023;DHT22;10669;51.076;3.714;2022-10-13T14:05:19;15.70;99.90
21023;DHT22;10669;51.076;3.714;2022-10-13T14:07:46;15.70;99.90
21023;DHT22;10669;51.076;3.714;2022-10-13T14:10:13;15.70;99.90
21023;DHT22;10669;51.076;3.714;2022-10-13T14:12:41;15.70;99.90
21023;DHT22;10669;51.076;3.714;2022-10-13T14:15:07;15.60;99.90
21023;DHT22;10669;51.076;3.714;2022-10-13T14:17:36;15.50;99.90
21023;DHT22;10669;51.076;3.714;2022-10-13T14:20:02;15.50;99.90
21023;DHT22;10669;51.076;3.714;2022-10-13T14:22:29;15.60;99.90
21023;DHT22;10669;51.076;3.714;2022-10-13T14:24:55;15.60;99.90
21023;DHT22;10669;51.076;3.714;2022-10-13T14:27:22;15.50;99.90
21023;DHT22;10669;51.076;3.714;2022-10-13T14:29:48;15.60;99.90
21023;DHT22;10669;51.076;3.714;2022-10-13T14:32:15;15.50;99.90
21023;DHT22;10669;51.076;3.714;2022-10-13T14:34:41;15.60;99.90
21023;DHT22;10669;51.076;3.714;2022-10-13T14:37:07;15.70;99.90
21023;DHT22;10669;51.076;3.714;2022-10-13T14:39:32;15.70;99.90
21023;DHT22;10669;51.076;3.714;2022-10-13T14:41:58;15.70;99.90
21023;DHT22;10669;51.076;3.714;2022-10-13T14:44:23;15.60;99.90
21023;DHT22;10669;51.076;3.714;2022-10-13T14:46:49;15.60;99.90
21023;DHT22;10669;51.076;3.714;2022-10-13T14:49:15;15.70;99.90
21023;DHT22;10669;51.076;3.714;2022-10-13T14:51:40;15.80;99.90
21023;DHT22;10669;51.076;3.714;2022-10-13T14:54:06;16.00;99.90
21023;DHT22;10669;51.076;3.714;2022-10-13T14:56:32;16.00;99.90
21023;DHT22;10669;51.076;3.714;2022-10-13T14:59:01;16.10;99.90
21023;DHT22;10669;51.076;3.714;2022-10-13T15:01:28;16.00;99.90
21023;DHT22;10669;51.076;3.714;2022-10-13T15:03:53;16.00;99.90
21023;DHT22;10669;51.076;3.714;2022-10-13T15:06:22;16.10;99.90
21023;DHT22;10669;51.076;3.714;2022-10-13T15:08:48;16.10;99.90
21023;DHT22;10669;51.076;3.714;2022-10-13T15:11:16;16.20;99.90
21023;DHT22;10669;51.076;3.714;2022-10-13T15:13:42;16.30;99.90
21023;DHT22;10669;51.076;3.714;2022-10-13T15:16:14;16.30;99.90
21023;DHT22;10669;51.076;3.714;2022-10-13T15:18:41;16.20;99.90
21023;DHT22;10669;51.076;3.714;2022-10-13T15:21:07;16.10;99.90
21023;DHT22;10669;51.076;3.714;2022-10-13T15:23:33;16.10;99.90
21023;DHT22;10669;51.076;3.714;2022-10-13T15:26:01;16.00;99.90
21023;DHT22;10669;51.076;3.714;2022-10-13T15:28:35;16.00;99.90
21023;DHT22;10669;51.076;3.714;2022-10-13T15:31:02;16.00;99.90
21023;DHT22;10669;51.076;3.714;2022-10-13T15:33:29;15.90;99.90
21023;DHT22;10669;51.076;3.714;2022-10-13T15:35:55;16.00;99.90
21023;DHT22;10669;51.076;3.714;2022-10-13T15:38:24;16.00;99.90
21023;DHT22;10669;51.076;3.714;2022-10-13T15:40:50;16.00;99.90
21023;DHT22;10669;51.076;3.714;2022-10-13T15:43:18;16.20;99.90
21023;DHT22;10669;51.076;3.714;2022-10-13T15:45:53;16.20;99.90
21023;DHT22;10669;51.076;3.714;2022-10-13T15:48:21;16.20;99.90
21023;DHT22;10669;51.076;3.714;2022-10-13T15:50:47;16.40;99.90
21023;DHT22;10669;51.076;3.714;2022-10-13T15:53:14;16.50;99.90
21023;DHT22;10669;51.076;3.714;2022-10-13T15:55:39;16.50;99.90
21023;DHT22;10669;51.076;3.714;2022-10-13T15:58:06;16.60;99.90
21023;DHT22;10669;51.076;3.714;2022-10-13T16:00:32;16.60;99.90
21023;DHT22;10669;51.076;3.714;2022-10-13T16:02:57;16.70;99.90
21023;DHT22;10669;51.076;3.714;2022-10-13T16:05:23;16.80;99.90
21023;DHT22;10669;51.076;3.714;2022-10-13T16:07:49;16.40;99.90
21023;DHT22;10669;51.076;3.714;2022-10-13T16:10:15;16.10;99.90
21023;DHT22;10669;51.076;3.714;2022-10-13T16:12:42;16.30;99.90
21023;DHT22;10669;51.076;3.714;2022-10-13T16:15:09;16.40;99.90
21023;DHT22;10669;51.076;3.714;2022-10-13T16:17:35;16.70;99.90
21023;DHT22;10669;51.076;3.714;2022-10-13T16:20:02;16.80;99.90
21023;DHT22;10669;51.076;3.714;2022-10-13T16:22:27;16.80;99.90
21023;DHT22;10669;51.076;3.714;2022-10-13T16:24:53;16.90;99.90
21023;DHT22;10669;51.076;3.714;2022-10-13T16:27:19;16.90;99.90
21023;DHT22;10669;51.076;3.714;2022-10-13T16:29:46;16.90;99.90
21023;DHT22;10669;51.076;3.714;2022-10-13T16:32:11;16.90;99.90
21023;DHT22;10669;51.076;3.714;2022-10-13T16:34:37;16.60;99.90
21023;DHT22;10669;51.076;3.714;2022-10-13T16:37:05;16.50;99.90
21023;DHT22;10669;51.076;3.714;2022-10-13T16:39:31;16.30;99.90
21023;DHT22;10669;51.076;3.714;2022-10-13T16:41:59;16.20;99.90
21023;DHT22;10669;51.076;3.714;2022-10-13T16:44:25;16.10;99.90
21023;DHT22;10669;51.076;3.714;2022-10-13T16:46:51;16.30;99.90
21023;DHT22;10669;51.076;3.714;2022-10-13T16:49:19;16.30;99.90
21023;DHT22;10669;51.076;3.714;2022-10-13T16:51:46;16.40;99.90
21023;DHT22;10669;51.076;3.714;2022-10-13T16:54:11;16.50;99.90
21023;DHT22;10669;51.076;3.714;2022-10-13T16:56:38;16.70;99.90
21023;DHT22;10669;51.076;3.714;2022-10-13T16:59:05;16.70;99.90
21023;DHT22;10669;51.076;3.714;2022-10-13T17:01:33;16.80;99.90
21023;DHT22;10669;51.076;3.714;2022-10-13T17:03:59;16.90;99.90
21023;DHT22;10669;51.076;3.714;2022-10-13T17:06:26;16.90;99.90
21023;DHT22;10669;51.076;3.714;2022-10-13T17:08:57;16.80;99.90
21023;DHT22;10669;51.076;3.714;2022-10-13T17:11:26;16.80;99.90
21023;DHT22;10669;51.076;3.714;2022-10-13T17:13:55;16.70;99.90
21023;DHT22;10669;51.076;3.714;2022-10-13T17:16:21;16.80;99.90
21023;DHT22;10669;51.076;3.714;2022-10-13T17:18:47;16.60;99.90
21023;DHT22;10669;51.076;3.714;2022-10-13T17:21:15;16.40;99.90
21023;DHT22;10669;51.076;3.714;2022-10-13T17:23:41;16.40;99.90
21023;DHT22;10669;51.076;3.714;2022-10-13T17:26:11;16.50;99.90
21023;DHT22;10669;51.076;3.714;2022-10-13T17:28:38;16.70;99.90
21023;DHT22;10669;51.076;3.714;2022-10-13T17:31:05;16.90;99.90